createdAt,value
2018-03-22T00:00:06.177Z,6.00
2018-03-22T00:01:06.067Z,6.10
2018-03-22T00:02:05.949Z,5.30
2018-03-22T00:03:05.868Z,6.90
2018-03-22T00:04:06.251Z,6.40
2018-03-22T00:05:05.666Z,6.50
2018-03-22T00:06:05.599Z,5.60
2018-03-22T00:07:06.253Z,7.20
2018-03-22T00:08:05.347Z,6.50
2018-03-22T00:09:05.264Z,7.00
2018-03-22T00:10:05.197Z,6.50
2018-03-22T00:11:05.047Z,5.10
2018-03-22T00:12:04.930Z,5.80
2018-03-22T00:13:04.855Z,6.00
2018-03-22T00:14:04.748Z,5.90
2018-03-22T00:15:04.622Z,6.70
2018-03-22T00:16:04.623Z,5.70
2018-03-22T00:17:04.439Z,6.10
2018-03-22T00:18:04.338Z,7.40
2018-03-22T00:19:04.229Z,6.20
2018-03-22T00:20:04.101Z,7.80
2018-03-22T00:21:04.032Z,5.50
2018-03-22T00:22:03.948Z,6.50
2018-03-22T00:23:03.823Z,5.20
2018-03-22T00:24:03.739Z,6.50
2018-03-22T00:25:03.591Z,6.30
2018-03-22T00:26:03.527Z,7.10
2018-03-22T00:27:03.410Z,6.40
2018-03-22T00:28:03.371Z,6.70
2018-03-22T00:29:03.185Z,6.70
2018-03-22T00:30:03.089Z,6.30
2018-03-22T00:31:03.005Z,5.40
2018-03-22T00:32:02.907Z,6.30
2018-03-22T00:33:02.826Z,6.40
2018-03-22T00:34:02.772Z,5.60
2018-03-22T00:35:02.612Z,6.00
2018-03-22T00:36:02.478Z,6.00
2018-03-22T00:37:02.384Z,5.80
2018-03-22T00:38:02.307Z,5.40
2018-03-22T00:39:02.184Z,4.90
2018-03-22T00:40:02.178Z,4.80
2018-03-22T00:41:02.027Z,5.40
2018-03-22T00:42:01.900Z,5.00
2018-03-22T00:43:01.804Z,5.00
2018-03-22T00:44:01.711Z,5.30
2018-03-22T00:45:01.603Z,5.40
2018-03-22T00:46:01.526Z,4.70
2018-03-22T00:47:01.382Z,4.80
2018-03-22T00:48:01.766Z,5.90
2018-03-22T00:49:01.192Z,5.10
2018-03-22T00:50:01.039Z,5.00
2018-03-22T00:51:00.989Z,6.10
2018-03-22T00:52:00.949Z,5.60
2018-03-22T00:53:00.783Z,4.80
2018-03-22T00:54:00.704Z,4.60
2018-03-22T00:55:00.588Z,5.80
2018-03-22T00:56:00.475Z,5.90
2018-03-22T00:57:00.391Z,5.70
2018-03-22T00:58:00.754Z,7.60
2018-03-22T00:59:00.178Z,5.70
2018-03-22T01:00:00.044Z,4.50
2018-03-22T01:00:59.990Z,4.10
2018-03-22T01:01:59.837Z,5.70
2018-03-22T01:02:59.767Z,7.00
2018-03-22T01:03:59.693Z,5.00
2018-03-22T01:04:59.537Z,4.90
2018-03-22T01:05:59.422Z,5.90
2018-03-22T01:06:59.381Z,6.30
2018-03-22T01:07:59.228Z,5.60
2018-03-22T01:08:59.139Z,6.10
2018-03-22T01:09:59.117Z,6.20
2018-03-22T01:10:58.923Z,6.30
2018-03-22T01:11:58.864Z,6.70
2018-03-22T01:12:58.754Z,5.20
2018-03-22T01:13:58.632Z,6.30
2018-03-22T01:14:58.547Z,4.80
2018-03-22T01:15:58.488Z,5.70
2018-03-22T01:16:58.346Z,6.00
2018-03-22T01:17:58.242Z,5.30
2018-03-22T01:18:58.146Z,5.00
2018-03-22T01:19:58.753Z,5.60
2018-03-22T01:20:57.927Z,4.70
2018-03-22T01:21:57.869Z,4.80
2018-03-22T01:22:57.686Z,4.30
2018-03-22T01:23:57.633Z,5.40
2018-03-22T01:24:57.536Z,5.20
2018-03-22T01:25:57.445Z,5.20
2018-03-22T01:26:57.324Z,5.90
2018-03-22T01:27:57.522Z,6.20
2018-03-22T01:28:57.103Z,5.30
2018-03-22T01:29:57.038Z,5.30
2018-03-22T01:30:56.924Z,5.70
2018-03-22T01:31:56.824Z,5.60
2018-03-22T01:32:56.715Z,6.10
2018-03-22T01:33:56.646Z,6.70
2018-03-22T01:34:57.256Z,4.60
2018-03-22T01:35:56.424Z,4.30
2018-03-22T01:36:56.282Z,4.80
2018-03-22T01:37:56.209Z,5.80
2018-03-22T01:38:56.110Z,6.60
2018-03-22T01:39:56.063Z,5.70
2018-03-22T01:40:55.958Z,4.70
2018-03-22T01:41:55.812Z,5.10
2018-03-22T01:42:55.733Z,6.10
2018-03-22T01:43:55.637Z,4.90
2018-03-22T01:44:55.430Z,4.60
2018-03-22T01:45:55.464Z,5.40
2018-03-22T01:46:55.290Z,6.40
2018-03-22T01:47:55.206Z,4.60
2018-03-22T01:48:55.096Z,4.70
2018-03-22T01:49:55.027Z,4.60
2018-03-22T01:50:54.899Z,5.70
2018-03-22T01:51:54.845Z,5.60
2018-03-22T01:52:54.694Z,5.10
2018-03-22T01:53:54.605Z,6.90
2018-03-22T01:54:54.489Z,5.70
2018-03-22T01:55:55.256Z,5.20
2018-03-22T01:56:54.252Z,5.00
2018-03-22T01:57:54.221Z,4.90
2018-03-22T01:58:54.093Z,7.20
2018-03-22T01:59:53.972Z,4.10
2018-03-22T02:00:53.888Z,5.30
2018-03-22T02:01:53.788Z,5.70
2018-03-22T02:02:53.663Z,5.10
2018-03-22T02:03:54.255Z,4.50
2018-03-22T02:04:53.470Z,4.80
2018-03-22T02:05:53.390Z,5.70
2018-03-22T02:06:53.273Z,4.50
2018-03-22T02:07:53.199Z,4.50
2018-03-22T02:08:53.756Z,4.30
2018-03-22T02:09:52.975Z,4.80
2018-03-22T02:10:52.845Z,5.30
2018-03-22T02:11:52.770Z,4.60
2018-03-22T02:12:53.438Z,4.60
2018-03-22T02:13:52.598Z,4.00
2018-03-22T02:14:52.440Z,5.20
2018-03-22T02:15:53.256Z,4.30
2018-03-22T02:16:52.279Z,7.90
2018-03-22T02:17:52.164Z,4.60
2018-03-22T02:18:52.759Z,4.50
2018-03-22T02:19:51.950Z,4.50
2018-03-22T02:20:52.762Z,4.90
2018-03-22T02:21:52.756Z,5.50
2018-03-22T02:23:01.255Z,5.30
2018-03-22T02:23:51.564Z,4.90
2018-03-22T02:24:51.466Z,5.40
2018-03-22T02:25:51.410Z,3.90
2018-03-22T02:26:51.250Z,6.10
2018-03-22T02:27:51.221Z,5.10
2018-03-22T02:28:51.061Z,4.50
2018-03-22T02:29:50.953Z,6.00
2018-03-22T02:30:50.905Z,5.10
2018-03-22T02:31:50.752Z,5.10
2018-03-22T02:32:50.621Z,4.50
2018-03-22T02:33:50.607Z,5.90
2018-03-22T02:34:51.257Z,5.10
2018-03-22T02:35:50.363Z,4.70
2018-03-22T02:36:50.232Z,4.60
2018-03-22T02:37:50.116Z,5.20
2018-03-22T02:38:50.059Z,4.80
2018-03-22T02:39:50.760Z,4.40
2018-03-22T02:40:49.829Z,4.60
2018-03-22T02:41:49.741Z,4.40
2018-03-22T02:42:49.665Z,6.10
2018-03-22T02:43:49.574Z,5.30
2018-03-22T02:44:49.421Z,5.50
2018-03-22T02:45:49.361Z,4.90
2018-03-22T02:46:49.215Z,5.40
2018-03-22T02:47:49.107Z,6.40
2018-03-22T02:48:49.019Z,6.10
2018-03-22T02:49:48.888Z,5.70
2018-03-22T02:50:48.794Z,6.20
2018-03-22T02:51:48.743Z,6.00
2018-03-22T02:52:48.639Z,5.70
2018-03-22T02:53:48.537Z,5.70
2018-03-22T02:54:48.454Z,4.30
2018-03-22T02:55:48.305Z,6.60
2018-03-22T02:56:48.208Z,5.50
2018-03-22T02:57:48.191Z,5.40
2018-03-22T02:58:48.043Z,5.90
2018-03-22T02:59:47.889Z,5.70
2018-03-22T03:00:47.835Z,6.80
2018-03-22T03:01:47.722Z,5.50
2018-03-22T03:02:47.652Z,5.70
2018-03-22T03:03:47.586Z,6.40
2018-03-22T03:04:47.417Z,5.80
2018-03-22T03:05:47.350Z,5.90
2018-03-22T03:06:47.222Z,7.10
2018-03-22T03:07:47.152Z,6.90
2018-03-22T03:08:47.007Z,5.20
2018-03-22T03:09:46.982Z,7.00
2018-03-22T03:10:46.823Z,6.60
2018-03-22T03:11:47.260Z,6.00
2018-03-22T03:12:46.634Z,6.60
2018-03-22T03:13:46.535Z,6.80
2018-03-22T03:14:46.444Z,4.90
2018-03-22T03:15:46.366Z,5.30
2018-03-22T03:16:46.229Z,6.00
2018-03-22T03:17:46.132Z,7.20
2018-03-22T03:18:46.014Z,6.00
2018-03-22T03:19:45.934Z,7.20
2018-03-22T03:20:45.827Z,7.10
2018-03-22T03:21:45.766Z,6.40
2018-03-22T03:22:45.600Z,6.90
2018-03-22T03:23:45.562Z,6.10
2018-03-22T03:24:45.433Z,5.80
2018-03-22T03:25:45.336Z,6.20
2018-03-22T03:26:45.213Z,6.30
2018-03-22T03:27:45.154Z,6.30
2018-03-22T03:28:45.021Z,7.10
2018-03-22T03:29:44.921Z,6.10
2018-03-22T03:30:44.789Z,7.90
2018-03-22T03:31:44.693Z,7.20
2018-03-22T03:32:44.577Z,6.40
2018-03-22T03:33:44.560Z,6.60
2018-03-22T03:34:44.416Z,7.30
2018-03-22T03:35:44.306Z,6.60
2018-03-22T03:36:44.237Z,5.70
2018-03-22T03:37:44.141Z,7.80
2018-03-22T03:38:44.024Z,8.10
2018-03-22T03:39:43.934Z,7.30
2018-03-22T03:40:43.798Z,5.70
2018-03-22T03:41:43.747Z,7.30
2018-03-22T03:42:43.614Z,7.20
2018-03-22T03:43:43.514Z,7.40
2018-03-22T03:44:43.430Z,6.10
2018-03-22T03:45:43.324Z,7.00
2018-03-22T03:46:43.232Z,7.40
2018-03-22T03:47:43.117Z,6.20
2018-03-22T03:48:43.002Z,7.20
2018-03-22T03:49:42.950Z,8.20
2018-03-22T03:50:42.795Z,6.50
2018-03-22T03:51:42.792Z,6.80
2018-03-22T03:52:42.611Z,8.40
2018-03-22T03:53:42.531Z,7.60
2018-03-22T03:54:42.414Z,8.40
2018-03-22T03:55:42.308Z,8.80
2018-03-22T03:56:42.200Z,8.60
2018-03-22T03:57:42.147Z,7.10
2018-03-22T03:58:41.999Z,9.00
2018-03-22T03:59:41.902Z,8.50
2018-03-22T04:00:41.787Z,7.30
2018-03-22T04:01:41.660Z,7.50
2018-03-22T04:02:41.611Z,8.50
2018-03-22T04:03:41.556Z,9.40
2018-03-22T04:04:41.410Z,9.20
2018-03-22T04:05:41.326Z,8.80
2018-03-22T04:06:41.208Z,9.00
2018-03-22T04:07:41.074Z,12.40
2018-03-22T04:08:41.031Z,9.80
2018-03-22T04:09:40.937Z,9.70
2018-03-22T04:10:40.813Z,11.80
2018-03-22T04:11:40.722Z,13.70
2018-03-22T04:12:40.622Z,10.50
2018-03-22T04:13:40.535Z,11.20
2018-03-22T04:14:40.399Z,9.60
2018-03-22T04:15:40.763Z,10.00
2018-03-22T04:16:40.200Z,10.40
2018-03-22T04:17:40.115Z,9.10
2018-03-22T04:18:39.969Z,9.00
2018-03-22T04:19:39.947Z,10.60
2018-03-22T04:20:39.802Z,10.30
2018-03-22T04:21:39.756Z,12.20
2018-03-22T04:22:39.599Z,10.00
2018-03-22T04:23:39.520Z,10.40
2018-03-22T04:24:39.406Z,11.70
2018-03-22T04:25:39.293Z,9.90
2018-03-22T04:26:39.193Z,11.80
2018-03-22T04:27:39.172Z,13.00
2018-03-22T04:28:39.003Z,12.10
2018-03-22T04:29:38.915Z,13.70
2018-03-22T04:30:38.794Z,10.50
2018-03-22T04:31:38.682Z,13.30
2018-03-22T04:32:38.601Z,12.90
2018-03-22T04:33:38.491Z,14.10
2018-03-22T04:34:38.417Z,13.00
2018-03-22T04:35:38.254Z,14.20
2018-03-22T04:36:39.764Z,12.90
2018-03-22T04:37:38.104Z,13.30
2018-03-22T04:38:37.986Z,13.10
2018-03-22T04:39:38.026Z,13.40
2018-03-22T04:40:37.803Z,14.20
2018-03-22T04:41:37.680Z,13.70
2018-03-22T04:42:37.596Z,13.80
2018-03-22T04:43:37.488Z,13.00
2018-03-22T04:44:37.353Z,11.50
2018-03-22T04:45:37.324Z,14.50
2018-03-22T04:46:37.167Z,13.80
2018-03-22T04:47:37.054Z,12.40
2018-03-22T04:48:36.932Z,14.90
2018-03-22T04:49:36.864Z,16.70
2018-03-22T04:50:36.777Z,13.70
2018-03-22T04:51:36.737Z,13.70
2018-03-22T04:52:36.575Z,15.60
2018-03-22T04:53:36.429Z,13.20
2018-03-22T04:54:36.400Z,13.90
2018-03-22T04:55:36.287Z,16.80
2018-03-22T04:56:36.161Z,14.00
2018-03-22T04:57:36.097Z,16.10
2018-03-22T04:58:35.939Z,14.20
2018-03-22T04:59:35.877Z,15.60
2018-03-22T05:00:35.768Z,15.10
2018-03-22T05:01:35.689Z,14.50
2018-03-22T05:02:35.571Z,15.30
2018-03-22T05:03:35.763Z,16.70
2018-03-22T05:04:35.361Z,14.30
2018-03-22T05:05:35.309Z,16.60
2018-03-22T05:06:35.195Z,16.70
2018-03-22T05:07:35.098Z,17.00
2018-03-22T05:08:34.982Z,14.10
2018-03-22T05:09:34.922Z,15.50
2018-03-22T05:10:34.784Z,16.10
2018-03-22T05:11:34.690Z,17.10
2018-03-22T05:12:34.580Z,13.90
2018-03-22T05:13:34.466Z,17.50
2018-03-22T05:14:34.382Z,23.60
2018-03-22T05:15:34.329Z,19.20
2018-03-22T05:16:34.178Z,17.60
2018-03-22T05:17:34.097Z,15.60
2018-03-22T05:18:33.974Z,16.10
2018-03-22T05:19:33.895Z,14.60
2018-03-22T05:20:33.742Z,16.00
2018-03-22T05:21:33.709Z,17.20
2018-03-22T05:22:33.595Z,15.50
2018-03-22T05:23:33.458Z,15.50
2018-03-22T05:24:33.415Z,15.60
2018-03-22T05:25:33.952Z,14.40
2018-03-22T05:26:33.141Z,15.00
2018-03-22T05:27:33.102Z,18.20
2018-03-22T05:28:32.973Z,14.40
2018-03-22T05:29:32.875Z,17.90
2018-03-22T05:30:32.771Z,16.20
2018-03-22T05:31:32.654Z,18.60
2018-03-22T05:32:32.582Z,17.00
2018-03-22T05:33:32.515Z,14.60
2018-03-22T05:34:32.381Z,13.60
2018-03-22T05:35:32.247Z,17.30
2018-03-22T05:36:32.157Z,13.70
2018-03-22T05:37:32.084Z,15.70
2018-03-22T05:38:31.955Z,17.40
2018-03-22T05:39:31.947Z,13.80
2018-03-22T05:40:31.814Z,12.70
2018-03-22T05:41:31.669Z,13.90
2018-03-22T05:42:31.620Z,15.10
2018-03-22T05:43:31.474Z,15.80
2018-03-22T05:44:31.361Z,14.30
2018-03-22T05:45:31.338Z,13.60
2018-03-22T05:46:31.199Z,13.60
2018-03-22T05:47:31.070Z,12.30
2018-03-22T05:48:30.979Z,14.90
2018-03-22T05:49:30.853Z,15.70
2018-03-22T05:50:30.749Z,13.30
2018-03-22T05:51:30.756Z,14.00
2018-03-22T05:52:30.582Z,13.40
2018-03-22T05:53:30.476Z,16.60
2018-03-22T05:54:30.376Z,11.60
2018-03-22T05:55:30.278Z,12.20
2018-03-22T05:56:30.221Z,12.30
2018-03-22T05:57:30.215Z,11.90
2018-03-22T05:58:29.986Z,11.50
2018-03-22T05:59:29.893Z,15.20
2018-03-22T06:00:29.790Z,12.50
2018-03-22T06:01:29.713Z,16.70
2018-03-22T06:02:29.558Z,10.20
2018-03-22T06:03:29.564Z,12.10
2018-03-22T06:04:29.378Z,11.90
2018-03-22T06:05:29.272Z,14.20
2018-03-22T06:06:29.183Z,10.10
2018-03-22T06:07:29.772Z,13.10
2018-03-22T06:08:29.005Z,13.00
2018-03-22T06:09:28.970Z,11.80
2018-03-22T06:10:28.764Z,11.20
2018-03-22T06:11:28.697Z,10.60
2018-03-22T06:12:28.646Z,12.50
2018-03-22T06:13:28.472Z,13.00
2018-03-22T06:14:28.400Z,12.90
2018-03-22T06:15:28.350Z,11.20
2018-03-22T06:16:28.194Z,12.80
2018-03-22T06:17:28.109Z,11.80
2018-03-22T06:18:27.981Z,11.80
2018-03-22T06:19:27.901Z,12.40
2018-03-22T06:20:27.807Z,14.00
2018-03-22T06:21:27.756Z,12.30
2018-03-22T06:22:27.617Z,13.30
2018-03-22T06:23:27.492Z,14.00
2018-03-22T06:24:27.408Z,11.30
2018-03-22T06:25:27.319Z,12.50
2018-03-22T06:26:27.234Z,12.50
2018-03-22T06:27:27.164Z,12.50
2018-03-22T06:28:27.008Z,12.50
2018-03-22T06:29:26.925Z,11.80
2018-03-22T06:30:26.828Z,11.70
2018-03-22T06:31:26.743Z,13.70
2018-03-22T06:32:26.628Z,14.70
2018-03-22T06:33:26.568Z,13.30
2018-03-22T06:34:26.421Z,12.70
2018-03-22T06:35:26.321Z,14.90
2018-03-22T06:36:26.231Z,15.00
2018-03-22T06:37:26.128Z,14.80
2018-03-22T06:38:26.031Z,13.70
2018-03-22T06:39:25.978Z,15.40
2018-03-22T06:40:25.858Z,14.60
2018-03-22T06:41:25.746Z,15.40
2018-03-22T06:42:25.617Z,15.90
2018-03-22T06:43:25.557Z,16.30
2018-03-22T06:44:25.411Z,14.70
2018-03-22T06:45:25.392Z,18.00
2018-03-22T06:46:25.236Z,15.50
2018-03-22T06:47:25.154Z,15.60
2018-03-22T06:48:25.059Z,16.40
2018-03-22T06:49:24.981Z,15.80
2018-03-22T06:50:24.859Z,15.00
2018-03-22T06:51:24.834Z,16.60
2018-03-22T06:52:24.655Z,15.80
2018-03-22T06:53:24.555Z,15.10
2018-03-22T06:54:24.465Z,16.10
2018-03-22T06:55:24.362Z,15.60
2018-03-22T06:56:24.274Z,15.60
2018-03-22T06:57:24.225Z,14.60
2018-03-22T06:58:24.062Z,15.90
2018-03-22T06:59:23.939Z,15.40
2018-03-22T07:00:23.860Z,15.60
2018-03-22T07:01:23.770Z,15.10
2018-03-22T07:02:23.655Z,16.90
2018-03-22T07:03:23.621Z,16.90
2018-03-22T07:04:23.476Z,17.00
2018-03-22T07:05:23.354Z,16.00
2018-03-22T07:06:23.294Z,16.20
2018-03-22T07:07:23.185Z,18.80
2018-03-22T07:08:23.048Z,16.00
2018-03-22T07:09:23.083Z,17.10
2018-03-22T07:10:22.885Z,17.60
2018-03-22T07:11:22.790Z,16.40
2018-03-22T07:12:22.707Z,17.50
2018-03-22T07:13:22.596Z,17.00
2018-03-22T07:14:22.511Z,16.30
2018-03-22T07:15:22.446Z,15.80
2018-03-22T07:16:22.316Z,18.00
2018-03-22T07:17:22.205Z,17.00
2018-03-22T07:18:22.099Z,16.50
2018-03-22T07:19:21.994Z,16.20
2018-03-22T07:20:21.930Z,18.60
2018-03-22T07:21:21.856Z,17.50
2018-03-22T07:22:21.703Z,17.10
2018-03-22T07:23:21.641Z,18.40
2018-03-22T07:24:21.538Z,18.70
2018-03-22T07:25:21.452Z,18.70
2018-03-22T07:26:21.354Z,21.20
2018-03-22T07:27:21.309Z,19.50
2018-03-22T07:28:21.120Z,19.70
2018-03-22T07:29:21.078Z,16.60
2018-03-22T07:30:20.953Z,19.40
2018-03-22T07:31:20.855Z,18.00
2018-03-22T07:32:20.748Z,20.60
2018-03-22T07:33:20.672Z,18.20
2018-03-22T07:34:20.563Z,19.80
2018-03-22T07:35:20.476Z,20.10
2018-03-22T07:36:20.356Z,21.20
2018-03-22T07:37:20.274Z,17.80
2018-03-22T07:38:20.192Z,18.10
2018-03-22T07:39:20.128Z,17.40
2018-03-22T07:40:19.992Z,19.40
2018-03-22T07:41:19.884Z,19.30
2018-03-22T07:42:19.796Z,18.40
2018-03-22T07:43:19.705Z,21.10
2018-03-22T07:44:19.600Z,20.00
2018-03-22T07:45:19.592Z,18.90
2018-03-22T07:46:19.420Z,21.00
2018-03-22T07:47:19.377Z,19.00
2018-03-22T07:48:19.285Z,21.30
2018-03-22T07:49:19.132Z,22.70
2018-03-22T07:50:19.017Z,18.80
2018-03-22T07:51:18.956Z,18.70
2018-03-22T07:52:18.832Z,18.90
2018-03-22T07:53:18.751Z,17.60
2018-03-22T07:54:18.662Z,22.90
2018-03-22T07:55:18.550Z,20.70
2018-03-22T07:56:18.441Z,20.30
2018-03-22T07:57:18.409Z,19.10
2018-03-22T07:58:18.286Z,23.10
2018-03-22T07:59:18.193Z,20.10
2018-03-22T08:00:18.074Z,21.90
2018-03-22T08:01:17.992Z,21.80
2018-03-22T08:02:17.874Z,19.50
2018-03-22T08:03:17.856Z,19.50
2018-03-22T08:04:17.683Z,20.60
2018-03-22T08:05:17.579Z,22.40
2018-03-22T08:06:17.518Z,22.40
2018-03-22T08:07:17.419Z,20.80
2018-03-22T08:08:17.318Z,21.70
2018-03-22T08:09:17.266Z,21.20
2018-03-22T08:10:17.125Z,23.60
2018-03-22T08:11:17.024Z,20.70
2018-03-22T08:12:16.934Z,21.70
2018-03-22T08:13:16.812Z,19.80
2018-03-22T08:14:16.743Z,20.20
2018-03-22T08:15:16.673Z,20.40
2018-03-22T08:16:16.536Z,21.20
2018-03-22T08:17:16.446Z,22.90
2018-03-22T08:18:16.367Z,20.50
2018-03-22T08:19:16.264Z,21.30
2018-03-22T08:20:16.187Z,24.30
2018-03-22T08:21:16.117Z,23.30
2018-03-22T08:22:15.996Z,23.80
2018-03-22T08:23:15.885Z,23.30
2018-03-22T08:24:15.795Z,24.00
2018-03-22T08:25:15.699Z,24.20
2018-03-22T08:26:15.637Z,26.60
2018-03-22T08:27:15.534Z,23.40
2018-03-22T08:28:15.412Z,25.00
2018-03-22T08:29:15.321Z,24.90
2018-03-22T08:30:15.221Z,23.10
2018-03-22T08:31:15.108Z,25.00
2018-03-22T08:32:15.029Z,25.50
2018-03-22T08:33:14.949Z,25.00
2018-03-22T08:34:14.848Z,24.80
2018-03-22T08:35:14.741Z,27.00
2018-03-22T08:36:14.658Z,26.10
2018-03-22T08:37:14.547Z,26.90
2018-03-22T08:38:14.451Z,26.20
2018-03-22T08:39:14.420Z,25.30
2018-03-22T08:40:14.270Z,26.50
2018-03-22T08:41:14.233Z,27.00
2018-03-22T08:42:14.090Z,27.60
2018-03-22T08:43:14.000Z,26.00
2018-03-22T08:44:13.870Z,27.80
2018-03-22T08:45:13.852Z,28.30
2018-03-22T08:46:13.672Z,26.00
2018-03-22T08:47:13.614Z,25.80
2018-03-22T08:48:13.482Z,26.40
2018-03-22T08:49:13.394Z,26.70
2018-03-22T08:50:13.305Z,27.40
2018-03-22T08:51:13.280Z,26.60
2018-03-22T08:52:13.123Z,28.40
2018-03-22T08:53:13.030Z,28.90
2018-03-22T08:54:12.933Z,26.50
2018-03-22T08:55:12.832Z,27.20
2018-03-22T08:56:12.733Z,24.40
2018-03-22T08:57:12.671Z,24.70
2018-03-22T08:58:12.536Z,25.50
2018-03-22T08:59:12.456Z,25.80
2018-03-22T09:00:12.360Z,27.80
2018-03-22T09:01:12.253Z,26.80
2018-03-22T09:02:12.168Z,27.10
2018-03-22T09:03:12.131Z,27.70
2018-03-22T09:04:11.972Z,26.50
2018-03-22T09:05:11.882Z,25.30
2018-03-22T09:06:11.782Z,28.40
2018-03-22T09:07:11.662Z,25.60
2018-03-22T09:08:11.586Z,26.00
2018-03-22T09:09:11.528Z,23.50
2018-03-22T09:10:11.381Z,24.50
2018-03-22T09:11:11.284Z,23.40
2018-03-22T09:12:11.193Z,24.90
2018-03-22T09:13:11.105Z,25.30
2018-03-22T09:14:11.082Z,24.90
2018-03-22T09:15:10.949Z,23.30
2018-03-22T09:16:10.816Z,26.50
2018-03-22T09:17:10.733Z,25.50
2018-03-22T09:18:10.631Z,24.70
2018-03-22T09:19:10.534Z,24.70
2018-03-22T09:20:10.444Z,22.30
2018-03-22T09:21:10.384Z,22.70
2018-03-22T09:22:10.241Z,21.60
2018-03-22T09:23:10.157Z,22.50
2018-03-22T09:24:10.039Z,25.80
2018-03-22T09:25:09.959Z,24.90
2018-03-22T09:26:09.871Z,21.80
2018-03-22T09:27:09.783Z,22.60
2018-03-22T09:28:09.675Z,21.60
2018-03-22T09:29:09.570Z,22.80
2018-03-22T09:30:09.482Z,22.10
2018-03-22T09:31:09.401Z,19.60
2018-03-22T09:32:09.280Z,21.40
2018-03-22T09:33:09.252Z,21.90
2018-03-22T09:34:09.092Z,22.10
2018-03-22T09:35:09.001Z,24.10
2018-03-22T09:36:08.911Z,21.70
2018-03-22T09:37:08.808Z,22.00
2018-03-22T09:38:08.748Z,23.30
2018-03-22T09:39:08.644Z,21.40
2018-03-22T09:40:08.532Z,23.00
2018-03-22T09:41:08.433Z,20.80
2018-03-22T09:42:08.336Z,23.50
2018-03-22T09:43:08.255Z,19.00
2018-03-22T09:44:08.160Z,20.60
2018-03-22T09:45:08.055Z,19.50
2018-03-22T09:46:07.942Z,24.40
2018-03-22T09:47:07.866Z,22.30
2018-03-22T09:48:07.757Z,20.30
2018-03-22T09:49:07.657Z,21.70
2018-03-22T09:50:07.558Z,23.90
2018-03-22T09:51:07.560Z,20.30
2018-03-22T09:52:07.381Z,21.60
2018-03-22T09:53:07.296Z,23.00
2018-03-22T09:54:07.190Z,21.80
2018-03-22T09:55:07.092Z,21.50
2018-03-22T09:56:07.011Z,21.00
2018-03-22T09:57:06.941Z,23.50
2018-03-22T09:58:06.815Z,23.20
2018-03-22T09:59:06.726Z,20.40
2018-03-22T10:00:06.625Z,21.40
2018-03-22T10:01:06.527Z,21.70
2018-03-22T10:02:06.429Z,25.40
2018-03-22T10:03:06.415Z,21.40
2018-03-22T10:04:06.256Z,20.50
2018-03-22T10:05:06.145Z,23.10
2018-03-22T10:06:06.056Z,22.30
2018-03-22T10:07:05.965Z,21.20
2018-03-22T10:08:05.898Z,22.80
2018-03-22T10:09:05.831Z,22.30
2018-03-22T10:10:05.701Z,21.70
2018-03-22T10:11:05.598Z,21.60
2018-03-22T10:12:05.497Z,23.90
2018-03-22T10:13:05.408Z,24.50
2018-03-22T10:14:05.312Z,21.00
2018-03-22T10:15:05.248Z,21.90
2018-03-22T10:16:05.130Z,22.60
2018-03-22T10:17:05.026Z,22.10
2018-03-22T10:18:04.928Z,21.90
2018-03-22T10:19:04.835Z,21.70
2018-03-22T10:20:04.749Z,23.00
2018-03-22T10:21:04.688Z,21.90
2018-03-22T10:22:04.572Z,22.50
2018-03-22T10:23:04.481Z,21.70
2018-03-22T10:24:04.398Z,21.40
2018-03-22T10:25:04.287Z,21.90
2018-03-22T10:26:04.169Z,22.80
2018-03-22T10:27:04.117Z,22.70
2018-03-22T10:28:03.984Z,22.50
2018-03-22T10:29:03.880Z,20.60
2018-03-22T10:30:03.825Z,23.30
2018-03-22T10:31:03.725Z,20.70
2018-03-22T10:32:03.639Z,21.90
2018-03-22T10:33:03.572Z,20.30
2018-03-22T10:34:03.458Z,19.80
2018-03-22T10:35:03.325Z,21.60
2018-03-22T10:36:03.275Z,20.20
2018-03-22T10:37:03.160Z,21.80
2018-03-22T10:38:03.082Z,20.80
2018-03-22T10:39:03.002Z,22.00
2018-03-22T10:40:02.892Z,22.60
2018-03-22T10:41:02.788Z,21.10
2018-03-22T10:42:02.742Z,22.00
2018-03-22T10:43:02.614Z,21.60
2018-03-22T10:44:02.519Z,19.50
2018-03-22T10:45:02.484Z,20.80
2018-03-22T10:46:02.336Z,21.90
2018-03-22T10:47:02.206Z,21.30
2018-03-22T10:48:02.138Z,20.70
2018-03-22T10:49:02.070Z,21.50
2018-03-22T10:50:01.999Z,23.80
2018-03-22T10:51:01.917Z,22.50
2018-03-22T10:52:01.783Z,21.30
2018-03-22T10:53:01.693Z,20.30
2018-03-22T10:54:01.609Z,23.40
2018-03-22T10:55:01.501Z,23.40
2018-03-22T10:56:01.423Z,20.90
2018-03-22T10:57:01.386Z,20.40
2018-03-22T10:58:01.228Z,21.80
2018-03-22T10:59:01.134Z,21.20
2018-03-22T11:00:01.052Z,20.90
2018-03-22T11:01:00.983Z,20.80
2018-03-22T11:02:00.841Z,21.80
2018-03-22T11:03:00.829Z,20.40
2018-03-22T11:04:00.675Z,20.50
2018-03-22T11:05:00.582Z,19.80
2018-03-22T11:06:00.519Z,21.40
2018-03-22T11:07:00.385Z,21.80
2018-03-22T11:08:00.304Z,21.10
2018-03-22T11:09:00.232Z,21.20
2018-03-22T11:10:00.128Z,22.60
2018-03-22T11:11:00.026Z,22.30
2018-03-22T11:11:59.923Z,23.00
2018-03-22T11:12:59.857Z,21.90
2018-03-22T11:13:59.752Z,22.70
2018-03-22T11:14:59.718Z,19.80
2018-03-22T11:15:59.550Z,20.90
2018-03-22T11:16:59.449Z,23.40
2018-03-22T11:17:59.369Z,22.10
2018-03-22T11:18:59.276Z,22.20
2018-03-22T11:19:59.211Z,21.70
2018-03-22T11:20:59.158Z,21.30
2018-03-22T11:21:59.014Z,21.40
2018-03-22T11:22:58.907Z,21.40
2018-03-22T11:23:58.788Z,20.80
2018-03-22T11:24:58.709Z,20.90
2018-03-22T11:25:58.600Z,20.40
2018-03-22T11:26:58.548Z,21.00
2018-03-22T11:27:58.413Z,21.20
2018-03-22T11:28:58.395Z,25.10
2018-03-22T11:29:58.253Z,23.60
2018-03-22T11:30:58.158Z,24.00
2018-03-22T11:31:58.019Z,25.40
2018-03-22T11:32:58.007Z,24.80
2018-03-22T11:33:57.880Z,23.90
2018-03-22T11:34:57.794Z,21.80
2018-03-22T11:35:57.689Z,22.80
2018-03-22T11:36:57.585Z,25.70
2018-03-22T11:37:57.499Z,24.40
2018-03-22T11:38:57.448Z,26.00
2018-03-22T11:39:57.289Z,23.40
2018-03-22T11:40:57.204Z,34.30
2018-03-22T11:41:57.111Z,30.30
2018-03-22T11:42:57.016Z,26.40
2018-03-22T11:43:56.914Z,25.70
2018-03-22T11:44:56.872Z,23.40
2018-03-22T11:45:56.713Z,23.20
2018-03-22T11:46:56.637Z,25.00
2018-03-22T11:47:56.520Z,25.90
2018-03-22T11:48:56.452Z,25.60
2018-03-22T11:49:56.346Z,24.50
2018-03-22T11:50:56.317Z,26.10
2018-03-22T11:51:56.178Z,23.00
2018-03-22T11:52:56.056Z,23.80
2018-03-22T11:53:55.991Z,28.40
2018-03-22T11:54:55.934Z,23.20
2018-03-22T11:55:55.790Z,24.40
2018-03-22T11:56:55.777Z,26.10
2018-03-22T11:57:55.592Z,27.80
2018-03-22T11:58:55.470Z,26.00
2018-03-22T11:59:55.425Z,24.40
2018-03-22T12:00:55.321Z,25.80
2018-03-22T12:01:55.296Z,23.00
2018-03-22T12:02:55.173Z,26.70
2018-03-22T12:03:55.018Z,27.30
2018-03-22T12:04:54.949Z,28.20
2018-03-22T12:05:54.854Z,27.80
2018-03-22T12:06:54.756Z,29.90
2018-03-22T12:07:54.653Z,32.00
2018-03-22T12:08:54.615Z,31.10
2018-03-22T12:09:54.447Z,28.60
2018-03-22T12:10:54.362Z,28.50
2018-03-22T12:11:54.289Z,28.90
2018-03-22T12:12:54.190Z,28.60
2018-03-22T12:13:54.118Z,32.60
2018-03-22T12:14:54.078Z,29.70
2018-03-22T12:15:53.914Z,30.60
2018-03-22T12:16:53.798Z,34.20
2018-03-22T12:17:53.715Z,33.40
2018-03-22T12:18:53.596Z,30.20
2018-03-22T12:19:53.504Z,33.70
2018-03-22T12:20:53.449Z,29.50
2018-03-22T12:21:53.374Z,31.60
2018-03-22T12:22:53.254Z,32.30
2018-03-22T12:23:53.177Z,34.00
2018-03-22T12:24:53.105Z,34.40
2018-03-22T12:25:52.953Z,31.40
2018-03-22T12:26:52.913Z,28.30
2018-03-22T12:27:52.779Z,31.80
2018-03-22T12:28:52.674Z,29.80
2018-03-22T12:29:52.575Z,36.00
2018-03-22T12:30:52.485Z,35.30
2018-03-22T12:31:52.435Z,36.20
2018-03-22T12:32:52.355Z,36.80
2018-03-22T12:33:52.185Z,33.00
2018-03-22T12:34:52.132Z,97.10
2018-03-22T12:35:52.015Z,39.40
2018-03-22T12:36:51.913Z,35.50
2018-03-22T12:37:51.831Z,36.10
2018-03-22T12:38:51.745Z,34.40
2018-03-22T12:39:51.639Z,36.20
2018-03-22T12:40:51.556Z,38.60
2018-03-22T12:41:51.441Z,31.60
2018-03-22T12:42:51.368Z,35.10
2018-03-22T12:43:51.276Z,38.50
2018-03-22T12:44:51.200Z,36.80
2018-03-22T12:45:51.058Z,32.20
2018-03-22T12:46:50.991Z,36.70
2018-03-22T12:47:50.876Z,33.40
2018-03-22T12:48:50.802Z,36.40
2018-03-22T12:49:50.710Z,33.30
2018-03-22T12:50:50.659Z,39.60
2018-03-22T12:51:50.486Z,32.60
2018-03-22T12:52:50.397Z,41.90
2018-03-22T12:53:50.306Z,36.20
2018-03-22T12:54:50.242Z,37.60
2018-03-22T12:55:50.132Z,35.90
2018-03-22T12:56:50.067Z,35.60
2018-03-22T12:57:49.930Z,36.30
2018-03-22T12:58:49.825Z,37.00